Terminal Aerodrome Forecast
Issued by NWS Sterling, VA

Current Version | Previous Version | Text Only | Print | Product List | Glossary Off
Versions: 1 2 3 4 5 6 7 8 9 10 11 12 13 14 15 16 17 18 19 20 21 22 23 24 25 26 27 28 29

000
FTUS41 KLWX 291124
TAFIAD
TAF
KIAD 291124Z 2912/3018 24004KT P6SM SKC
     FM291700 23004KT P6SM FEW250
     FM292100 21008KT P6SM SCT120
     FM300000 17004KT P6SM SCT090
     FM301600 19008KT P6SM BKN050=

USA.gov is the U.S. government's official web portal to all federal, state and local government web resources and services.